Time;durP1;ratioP1;P1;durP2;ratioP2;P2;SDS_P1;SDS_P2;PMS_P1;PMS_P2;Temp;Humidity;BMP_temperature;BMP_pressure;BME280_temperature;BME280_humidity;BME280_pressure;Samples;Min_cycle;Max_cycle;Signal;HPM_P1;HPM_P2
2022/01/19 00:00:46;;;;;;;30.23;17.55;;;;;;;;;;5104383;27;20125;-82
2022/01/19 00:03:13;;;;;;;31.20;16.42;;;;;;;;;;5081130;27;20042;-82
2022/01/19 00:05:39;;;;;;;33.10;15.93;;;;;;;;;;5115214;27;20543;-82
2022/01/19 00:08:05;;;;;;;25.48;14.73;;;;;;;;;;5083630;27;20484;-82
2022/01/19 00:10:32;;;;;;;36.97;16.45;;;;;;;;;;5080864;27;20476;-82
2022/01/19 00:12:59;;;;;;;30.33;14.60;;;;;;;;;;5101376;27;20066;-82
2022/01/19 00:15:27;;;;;;;33.40;14.88;;;;;;;;;;5097315;28;20043;-82
2022/01/19 00:17:56;;;;;;;28.95;13.10;;;;;;;;;;5077980;28;20047;-82
2022/01/19 00:20:22;;;;;;;36.15;16.20;;;;;;;;;;5081364;27;20049;-82
2022/01/19 00:22:49;;;;;;;39.72;20.33;;;;;;;;;;5101225;27;20042;-82
2022/01/19 00:25:15;;;;;;;50.92;22.00;;;;;;;;;;5095976;28;20071;-81
2022/01/19 00:27:41;;;;;;;36.95;19.92;;;;;;;;;;5102520;27;20110;-81
2022/01/19 00:30:08;;;;;;;30.45;17.50;;;;;;;;;;5097491;28;20074;-82
2022/01/19 00:32:34;;;;;;;32.13;18.80;;;;;;;;;;5075279;28;20069;-81
2022/01/19 00:35:00;;;;;;;34.03;16.63;;;;;;;;;;5075203;28;20123;-81
2022/01/19 00:37:27;;;;;;;37.95;21.45;;;;;;;;;;5097577;27;20488;-81
2022/01/19 00:39:53;;;;;;;39.97;21.08;;;;;;;;;;5101890;27;20047;-81
2022/01/19 00:42:19;;;;;;;41.13;22.85;;;;;;;;;;5095906;27;20386;-81
2022/01/19 00:44:46;;;;;;;32.13;19.27;;;;;;;;;;5096018;27;20723;-80
2022/01/19 00:47:12;;;;;;;38.78;22.67;;;;;;;;;;5095829;27;20039;-81
2022/01/19 00:49:42;;;;;;;33.15;18.13;;;;;;;;;;5085973;27;20046;-81
2022/01/19 00:52:09;;;;;;;31.48;16.48;;;;;;;;;;5101563;27;20068;-81
2022/01/19 00:54:35;;;;;;;38.15;18.55;;;;;;;;;;5082468;27;20051;-81
2022/01/19 00:57:01;;;;;;;34.97;16.00;;;;;;;;;;5094476;27;20032;-81
2022/01/19 00:59:28;;;;;;;37.42;18.10;;;;;;;;;;5097296;27;20396;-82
2022/01/19 01:01:54;;;;;;;38.58;17.38;;;;;;;;;;5097320;28;20421;-82
2022/01/19 01:04:20;;;;;;;36.65;20.02;;;;;;;;;;5100295;27;20039;-82
2022/01/19 01:06:46;;;;;;;32.58;16.35;;;;;;;;;;5095941;27;20035;-82
2022/01/19 01:09:13;;;;;;;25.25;12.55;;;;;;;;;;5097881;27;20041;-82
2022/01/19 01:11:47;;;;;;;26.58;14.32;;;;;;;;;;5088482;28;20035;-83
2022/01/19 01:17:08;;;;;;;26.92;12.75;;;;;;;;;;5095853;27;20043;-82
2022/01/19 01:19:27;;;;;;;30.25;14.82;;;;;;;;;;5094599;27;20078;-82
2022/01/19 01:21:53;;;;;;;26.15;12.02;;;;;;;;;;5098638;27;20043;-82
2022/01/19 01:24:19;;;;;;;29.52;15.13;;;;;;;;;;5107035;27;20087;-82
2022/01/19 01:26:45;;;;;;;29.48;15.23;;;;;;;;;;5099873;27;20039;-82
2022/01/19 01:29:12;;;;;;;36.38;19.98;;;;;;;;;;5098342;27;20042;-82
2022/01/19 01:31:38;;;;;;;37.90;19.48;;;;;;;;;;5109763;27;20070;-81
2022/01/19 01:34:04;;;;;;;23.55;12.30;;;;;;;;;;5080887;27;20039;-81
2022/01/19 01:36:30;;;;;;;26.33;14.25;;;;;;;;;;5101577;28;20031;-82
2022/01/19 01:38:56;;;;;;;31.52;16.35;;;;;;;;;;5097433;28;20141;-82
2022/01/19 01:41:22;;;;;;;31.23;15.95;;;;;;;;;;5098775;27;20047;-81
2022/01/19 01:43:49;;;;;;;24.80;14.32;;;;;;;;;;5095032;28;20042;-82
2022/01/19 01:46:33;;;;;;;27.95;16.10;;;;;;;;;;5095084;28;20174;-82
2022/01/19 01:49:00;;;;;;;41.42;25.80;;;;;;;;;;5079417;27;20125;-82
2022/01/19 01:54:11;;;;;;;35.58;19.80;;;;;;;;;;5096519;28;20047;-81
2022/01/19 01:56:37;;;;;;;34.97;16.42;;;;;;;;;;5101338;28;20171;-81
2022/01/19 01:59:03;;;;;;;41.17;24.80;;;;;;;;;;5093115;28;20031;-81
2022/01/19 02:01:30;;;;;;;48.67;29.02;;;;;;;;;;5099071;28;20039;-82
2022/01/19 02:03:57;;;;;;;49.72;27.63;;;;;;;;;;5100986;27;20035;-82
2022/01/19 02:06:51;;;;;;;45.88;19.65;;;;;;;;;;5077391;28;20043;-82
2022/01/19 02:09:21;;;;;;;40.50;23.13;;;;;;;;;;5098946;28;20064;-81
2022/01/19 02:15:50;;;;;;;31.23;17.65;;;;;;;;;;5094581;28;20047;-82
2022/01/19 02:23:25;;;;;;;38.45;18.88;;;;;;;;;;5094196;27;20078;-82
2022/01/19 02:25:53;;;;;;;39.35;19.48;;;;;;;;;;5079661;27;22056;-82
2022/01/19 02:31:35;;;;;;;44.78;19.02;;;;;;;;;;5099026;27;20086;-82
2022/01/19 02:42:52;;;;;;;49.15;19.25;;;;;;;;;;4994496;28;20050;-81
2022/01/19 02:50:31;;;;;;;43.75;17.80;;;;;;;;;;5098726;27;20083;-82
2022/01/19 02:52:58;;;;;;;44.47;16.40;;;;;;;;;;5103481;27;20107;-82
2022/01/19 02:55:24;;;;;;;72.18;20.30;;;;;;;;;;5101264;27;20047;-82
2022/01/19 02:57:51;;;;;;;55.10;22.38;;;;;;;;;;5081988;27;20040;-82
2022/01/19 03:11:12;;;;;;;59.17;22.48;;;4.00;99.90;;;;;;5100154;27;20047;-82
2022/01/19 03:13:39;;;;;;;52.10;20.30;;;;;;;;;;5101585;27;20043;-81
2022/01/19 03:16:05;;;;;;;49.70;20.02;;;;;;;;;;5084015;27;20031;-81
2022/01/19 03:18:31;;;;;;;46.95;18.95;;;;;;;;;;5077037;28;20043;-82
2022/01/19 03:20:58;;;;;;;47.28;21.50;;;;;;;;;;5077780;27;20038;-81
2022/01/19 03:23:24;;;;;;;48.30;20.75;;;;;;;;;;5097081;27;20090;-81
2022/01/19 03:25:51;;;;;;;70.07;21.83;;;;;;;;;;5100132;27;20045;-81
2022/01/19 03:28:17;;;;;;;65.75;23.15;;;;;;;;;;5086397;27;20039;-81
2022/01/19 03:30:44;;;;;;;45.40;18.52;;;;;;;;;;5080334;27;20047;-82
2022/01/19 03:33:11;;;;;;;68.30;26.17;;;;;;;;;;5084240;27;20169;-82
2022/01/19 03:35:38;;;;;;;68.90;21.85;;;;;;;;;;5078371;27;20112;-82
2022/01/19 03:38:05;;;;;;;47.80;16.88;;;;;;;;;;5102979;27;20047;-82
2022/01/19 03:40:31;;;;;;;51.85;21.00;;;;;;;;;;5079578;27;20051;-82
2022/01/19 03:42:58;;;;;;;55.90;28.13;;;;;;;;;;5098840;27;20031;-82
2022/01/19 03:45:24;;;;;;;72.95;20.55;;;;;;;;;;5080351;27;20035;-82
2022/01/19 03:48:05;;;;;;;32.60;14.48;;;;;;;;;;5096036;27;20039;-82
2022/01/19 03:50:31;;;;;;;55.08;22.35;;;;;;;;;;5096714;27;20057;-82
2022/01/19 03:52:58;;;;;;;64.13;23.30;;;;;;;;;;5098444;27;20035;-82
2022/01/19 03:55:24;;;;;;;80.55;21.63;;;;;;;;;;5078384;27;20039;-81
2022/01/19 03:57:50;;;;;;;73.95;20.33;;;;;;;;;;5087696;27;20039;-82
2022/01/19 04:00:16;;;;;;;48.83;16.80;;;;;;;;;;5104909;27;20096;-81
2022/01/19 04:02:42;;;;;;;53.78;17.35;;;;;;;;;;5097137;27;20043;-81
2022/01/19 04:05:24;;;;;;;62.70;22.13;;;;;;;;;;5082153;27;20046;-82
2022/01/19 04:07:50;;;;;;;64.07;19.95;;;;;;;;;;5098971;27;20514;-82
2022/01/19 04:10:16;;;;;;;64.43;20.88;;;;;;;;;;5099294;27;20505;-82
2022/01/19 04:15:10;;;;;;;54.53;17.98;;;;;;;;;;5121958;27;20055;-81
2022/01/19 04:17:41;;;;;;;73.30;15.05;;;;;;;;;;5103527;27;20039;-81
2022/01/19 04:20:08;;;;;;;42.83;16.27;;;;;;;;;;5088317;27;20035;-81
2022/01/19 04:22:34;;;;;;;72.88;17.80;;;;;;;;;;5098500;27;20503;-82
2022/01/19 04:25:00;;;;;;;49.17;15.98;;;;;;;;;;5105751;27;20038;-82
2022/01/19 04:30:01;;;;;;;59.20;22.67;;;;;;;;;;5096277;27;20126;-81
2022/01/19 04:33:00;;;;;;;;;;;;;;;;;;5102294;27;20051;-81
2022/01/19 04:35:17;;;;;;;63.55;27.33;;;;;;;;;;5105067;27;19923;-81
2022/01/19 04:48:17;;;;;;;56.00;16.50;;;;;;;;;;5096315;28;20488;-82
2022/01/19 05:02:27;;;;;;;85.38;17.80;;;;;;;;;;5036079;28;20059;-83
2022/01/19 05:05:09;;;;;;;43.70;16.38;;;;;;;;;;5092681;27;20039;-82
2022/01/19 05:07:56;;;;;;;120.70;24.52;;;;;;;;;;5093562;28;20044;-82
2022/01/19 05:13:26;;;;;;;64.25;14.88;;;;;;;;;;5096731;28;20409;-82
2022/01/19 05:15:53;;;;;;;61.72;22.42;;;;;;;;;;5099554;28;20143;-82
2022/01/19 05:18:19;;;;;;;63.92;18.70;;;;;;;;;;5090770;28;20503;-82
2022/01/19 05:20:47;;;;;;;109.32;22.30;;;;;;;;;;5079509;28;20064;-82
2022/01/19 05:23:14;;;;;;;114.40;23.92;;;;;;;;;;5075194;28;20078;-82
2022/01/19 05:25:41;;;;;;;44.65;14.73;;;;;;;;;;5100174;27;20536;-82
2022/01/19 05:28:07;;;;;;;39.65;15.70;;;;;;;;;;5089345;28;20039;-83
2022/01/19 05:30:33;;;;;;;82.93;19.25;;;;;;;;;;5077328;28;20506;-82
2022/01/19 05:33:00;;;;;;;44.83;16.55;;;;;;;;;;5094154;28;20646;-82
2022/01/19 05:35:27;;;;;;;64.18;19.17;;;;;;;;;;5091042;28;20465;-82
2022/01/19 05:37:54;;;;;;;50.80;16.75;;;;;;;;;;5073830;28;20043;-82
2022/01/19 05:40:20;;;;;;;56.90;20.77;;;;;;;;;;5073984;28;20047;-80
2022/01/19 05:42:48;;;;;;;58.78;19.05;;;;;;;;;;5091713;28;20046;-80
2022/01/19 05:45:14;;;;;;;53.15;19.90;;;;;;;;;;5098565;28;20407;-80
2022/01/19 05:47:41;;;;;;;61.35;20.85;;;;;;;;;;5093965;28;20104;-80
2022/01/19 05:50:07;;;;;;;59.38;19.75;;;;;;;;;;5096299;28;20134;-81
2022/01/19 05:52:33;;;;;;;73.97;22.65;;;;;;;;;;5077262;28;20069;-81
2022/01/19 05:54:59;;;;;;;51.65;20.73;;;;;;;;;;5078986;28;20088;-81
2022/01/19 05:57:25;;;;;;;42.92;17.55;;;;;;;;;;5099776;27;20561;-81
2022/01/19 05:59:52;;;;;;;58.97;19.65;;;;;;;;;;5089619;27;20475;-81
2022/01/19 06:02:18;;;;;;;50.30;19.95;;;;;;;;;;5100677;27;20108;-81
2022/01/19 06:04:44;;;;;;;64.72;19.63;;;;;;;;;;5117518;27;20682;-82
2022/01/19 06:07:12;;;;;;;61.85;19.02;;;;;;;;;;5092511;27;20351;-82
2022/01/19 06:12:30;;;;;;;37.38;13.65;;;;;;;;;;5017600;28;20041;-81
2022/01/19 06:14:56;;;;;;;48.78;18.65;;;;;;;;;;5021653;28;20105;-81
2022/01/19 06:17:22;;;;;;;52.50;13.68;;;;;;;;;;5023472;28;20409;-82
2022/01/19 06:19:49;;;;;;;49.33;18.83;;;;;;;;;;5016581;28;20638;-81
2022/01/19 06:22:17;;;;;;;49.88;17.13;;;;;;;;;;5024773;28;20056;-82
2022/01/19 06:24:43;;;;;;;42.92;14.98;;;;;;;;;;5022936;28;20041;-81
2022/01/19 06:27:09;;;;;;;44.38;16.38;;;;;;;;;;5022486;28;20053;-82
2022/01/19 06:29:35;;;;;;;47.63;17.50;;;;;;;;;;5021492;28;20053;-82
2022/01/19 06:32:02;;;;;;;48.97;20.25;;;;;;;;;;5019486;28;20040;-82
2022/01/19 06:34:28;;;;;;;51.33;19.25;;;;;;;;;;5015817;28;20455;-81
2022/01/19 06:36:54;;;;;;;59.97;25.42;;;;;;;;;;5011032;28;20466;-81
2022/01/19 06:39:21;;;;;;;47.35;19.52;;;;;;;;;;5000235;28;20050;-81
2022/01/19 06:41:48;;;;;;;49.22;21.83;;;;;;;;;;5021734;28;20312;-81
2022/01/19 06:44:14;;;;;;;48.03;15.88;;;;;;;;;;5013215;28;20129;-81
2022/01/19 06:46:41;;;;;;;54.42;18.67;;;;;;;;;;5002458;28;20385;-81
2022/01/19 06:49:07;;;;;;;56.17;20.20;;;;;;;;;;5035245;27;20591;-81
2022/01/19 06:51:33;;;;;;;46.63;17.27;;;;;;;;;;5074866;28;20040;-81
2022/01/19 06:53:59;;;;;;;38.05;15.95;;;;;;;;;;5077503;28;20523;-82
2022/01/19 06:56:25;;;;;;;42.95;19.63;;;;;;;;;;5096864;28;20143;-82
2022/01/19 06:58:51;;;;;;;51.97;21.73;;;;;;;;;;5093900;28;20505;-82
2022/01/19 07:01:18;;;;;;;50.80;21.58;;;;;;;;;;5098278;27;20040;-82
2022/01/19 07:03:44;;;;;;;55.75;23.25;;;;;;;;;;5100241;28;20044;-82
2022/01/19 07:06:11;;;;;;;43.17;19.60;;;;;;;;;;5081355;28;20039;-82
2022/01/19 07:08:40;;;;;;;41.20;18.17;;;;;;;;;;5082850;28;20273;-82
2022/01/19 07:11:06;;;;;;;50.80;19.40;;;;;;;;;;5099902;28;20039;-82
2022/01/19 07:13:33;;;;;;;51.80;16.80;;;;;;;;;;5074313;28;20496;-82
2022/01/19 07:15:59;;;;;;;52.72;18.60;;;;;;;;;;5093492;28;20077;-82
2022/01/19 07:18:25;;;;;;;44.78;16.77;;;;;;;;;;5093948;28;20507;-82
2022/01/19 07:20:52;;;;;;;39.72;15.77;;;;;;;;;;5094894;28;20046;-82
2022/01/19 07:23:18;;;;;;;48.17;19.98;;;;;;;;;;5074938;28;20043;-81
2022/01/19 07:25:44;;;;;;;50.70;17.70;;;;;;;;;;5073606;28;20047;-82
2022/01/19 07:28:11;;;;;;;38.40;17.02;;;;;;;;;;5097704;28;20503;-82
2022/01/19 07:30:38;;;;;;;42.60;18.60;;;;;;;;;;5078966;28;20849;-82
2022/01/19 07:33:04;;;;;;;37.70;16.50;;;;;;;;;;5097105;28;20852;-82
2022/01/19 07:35:31;;;;;;;51.50;21.75;;;;;;;;;;5098047;28;20045;-82
2022/01/19 07:37:57;;;;;;;46.70;21.58;;;;;;;;;;5100493;27;20074;-83
2022/01/19 07:40:23;;;;;;;51.30;17.50;;;;;;;;;;5088600;28;20476;-83
2022/01/19 07:42:49;;;;;;;49.95;19.45;;;;;;;;;;5077084;28;20536;-82
2022/01/19 07:45:16;;;;;;;44.80;19.88;;;;;;;;;;5097044;28;20500;-83
2022/01/19 07:47:42;;;;;;;48.67;18.90;;;;;;;;;;5077271;28;20583;-83
2022/01/19 07:50:09;;;;;;;57.95;22.88;;;;;;;;;;5095571;27;20039;-83
2022/01/19 07:52:35;;;;;;;41.47;17.85;;;;;;;;;;5083687;28;20118;-82
2022/01/19 07:55:01;;;;;;;50.15;20.27;;;;;;;;;;5098960;28;21158;-82
2022/01/19 07:57:27;;;;;;;43.92;18.98;;;;;;;;;;5089157;28;20088;-82
2022/01/19 07:59:54;;;;;;;33.28;16.15;;;;;;;;;;5099546;27;20031;-82
2022/01/19 08:02:20;;;;;;;34.40;17.10;;;;;;;;;;5079214;28;20036;-82
2022/01/19 08:04:46;;;;;;;43.97;17.63;;;;;;;;;;5096527;27;20400;-85
2022/01/19 08:07:12;;;;;;;51.70;25.15;;;;;;;;;;5075605;28;20529;-82
2022/01/19 08:09:40;;;;;;;51.88;19.73;;;;;;;;;;5096518;28;20031;-83
2022/01/19 08:12:06;;;;;;;44.65;21.95;;;;;;;;;;5091189;28;20040;-83
2022/01/19 08:14:32;;;;;;;53.05;26.38;;;;;;;;;;5095831;28;20067;-83
2022/01/19 08:16:59;;;;;;;44.45;19.63;;;;;;;;;;5097911;28;20549;-82
2022/01/19 08:19:25;;;;;;;43.53;23.10;;;;;;;;;;5094800;28;20105;-82
2022/01/19 08:21:52;;;;;;;42.88;18.80;;;;;;;;;;5088798;28;20076;-82
2022/01/19 08:24:18;;;;;;;42.05;19.65;;;;;;;;;;5073465;28;20468;-82
2022/01/19 08:26:44;;;;;;;33.95;16.38;;;;;;;;;;5093844;28;20071;-82
2022/01/19 08:29:10;;;;;;;41.85;20.08;;;;;;;;;;5094823;28;20722;-84
2022/01/19 08:31:37;;;;;;;46.55;25.02;;;;;;;;;;5107772;28;20734;-85
2022/01/19 08:34:04;;;;;;;47.72;23.20;;;;;;;;;;5085638;28;20493;-85
2022/01/19 08:36:30;;;;;;;37.00;18.33;;;;;;;;;;5094289;28;20047;-84
2022/01/19 08:38:56;;;;;;;38.22;20.02;;;;;;;;;;5076547;28;20090;-85
2022/01/19 08:41:22;;;;;;;45.10;20.75;;;;;;;;;;5096379;28;20039;-85
2022/01/19 08:43:49;;;;;;;51.22;22.98;;;;;;;;;;5094515;28;20043;-85
2022/01/19 08:46:15;;;;;;;46.53;21.23;;;;;;;;;;5092212;28;20043;-84
2022/01/19 08:48:42;;;;;;;40.55;20.35;;;;;;;;;;5098291;28;20146;-84
2022/01/19 08:51:08;;;;;;;40.25;20.02;;;;;;;;;;5071819;28;20036;-83
2022/01/19 08:53:35;;;;;;;46.28;23.02;;;;;;;;;;5098300;28;20137;-84
2022/01/19 08:56:01;;;;;;;47.88;23.75;;;;;;;;;;5077896;28;20046;-84
2022/01/19 08:58:27;;;;;;;39.25;20.83;;;;;;;;;;5095856;28;20126;-83
2022/01/19 09:00:54;;;;;;;41.67;18.90;;;4.80;99.90;;;;;;5096096;28;20087;-83
2022/01/19 09:03:20;;;;;;;42.45;18.42;;;;;;;;;;5076432;28;20046;-83
2022/01/19 09:05:46;;;;;;;42.90;20.45;;;;;;;;;;5097202;27;20042;-86
2022/01/19 09:08:12;;;;;;;42.15;18.38;;;;;;;;;;5089569;28;20519;-82
2022/01/19 09:10:40;;;;;;;37.83;20.73;;;;;;;;;;5080374;27;20047;-82
2022/01/19 09:13:06;;;;;;;52.88;23.02;;;;;;;;;;5077684;28;20400;-82
2022/01/19 09:15:33;;;;;;;35.45;18.33;;;;;;;;;;5095453;28;20124;-82
2022/01/19 09:17:59;;;;;;;44.05;22.30;;;;;;;;;;5097039;28;20031;-81
2022/01/19 09:20:25;;;;;;;41.58;20.13;;;;;;;;;;5091199;28;20138;-81
2022/01/19 09:22:52;;;;;;;47.13;21.48;;;;;;;;;;5075247;28;20071;-81
2022/01/19 09:25:18;;;;;;;42.80;19.33;;;;;;;;;;5090890;28;20048;-81
2022/01/19 09:27:44;;;;;;;38.78;21.60;;;;;;;;;;5093229;28;20079;-82
2022/01/19 09:30:18;;;;;;;42.03;20.27;;;;;;;;;;5077745;28;20052;-82
2022/01/19 09:32:49;;;;;;;44.58;26.48;;;;;;;;;;5096428;28;20046;-82
2022/01/19 09:35:23;;;;;;;36.42;19.00;;;;;;;;;;5076416;28;21450;-82
2022/01/19 09:37:49;;;;;;;39.03;18.98;;;;;;;;;;5076381;28;20027;-82
2022/01/19 09:40:16;;;;;;;33.80;19.50;;;;;;;;;;5096223;28;20047;-82
2022/01/19 09:42:44;;;;;;;39.70;18.45;;;;;;;;;;5091388;28;20064;-82
2022/01/19 09:45:10;;;;;;;38.00;20.67;;;;;;;;;;5080994;28;20047;-82
2022/01/19 09:47:36;;;;;;;32.40;15.43;;;;;;;;;;5096712;28;20047;-82
2022/01/19 09:50:03;;;;;;;29.00;16.40;;;;;;;;;;5078213;28;20048;-82
2022/01/19 09:52:30;;;;;;;47.05;21.20;;;5.20;99.90;;;;;;5076526;28;20088;-82
2022/01/19 09:54:57;;;;;;;33.80;16.48;;;;;;;;;;5074668;28;20581;-82
2022/01/19 09:57:23;;;;;;;39.35;17.35;;;;;;;;;;5076755;28;20036;-82
2022/01/19 09:59:49;;;;;;;46.35;24.23;;;;;;;;;;5096305;28;20035;-82
2022/01/19 10:02:16;;;;;;;50.47;22.42;;;;;;;;;;5098732;28;20039;-82
2022/01/19 10:04:44;;;;;;;43.33;19.20;;;;;;;;;;5079094;28;20031;-82
2022/01/19 10:07:11;;;;;;;49.13;23.85;;;;;;;;;;5098682;28;20069;-82
2022/01/19 10:09:53;;;;;;;39.72;19.50;;;;;;;;;;5078358;28;20413;-82
2022/01/19 10:18:10;;;;;;;43.92;21.33;;;;;;;;;;5083770;28;20048;-82
2022/01/19 10:20:36;;;;;;;54.47;25.85;;;;;;;;;;5075623;28;20518;-82
2022/01/19 10:23:02;;;;;;;41.33;22.15;;;;;;;;;;5091700;28;20104;-82
2022/01/19 10:25:47;;;;;;;45.22;21.13;;;;;;;;;;5093350;28;20048;-83
2022/01/19 10:28:13;;;;;;;35.92;18.23;;;;;;;;;;5078446;28;20047;-82
2022/01/19 10:30:40;;;;;;;49.42;24.10;;;;;;;;;;5088203;28;20521;-82
2022/01/19 10:33:06;;;;;;;44.58;22.17;;;;;;;;;;5093499;28;20050;-82
2022/01/19 10:35:36;;;;;;;27.30;14.25;;;;;;;;;;5091593;28;20040;-82
2022/01/19 10:38:14;;;;;;;37.65;18.25;;;;;;;;;;5089877;28;20040;-82
2022/01/19 10:40:42;;;;;;;52.42;21.42;;;;;;;;;;5080460;28;20169;-83
2022/01/19 10:43:27;;;;;;;40.72;17.25;;;;;;;;;;5097369;28;20027;-82
2022/01/19 10:45:54;;;;;;;41.50;19.48;;;;;;;;;;5097223;27;20039;-82
2022/01/19 10:48:39;;;;;;;41.33;21.17;;;6.00;99.90;;;;;;5085786;27;20050;-82
2022/01/19 10:51:13;;;;;;;39.63;19.40;;;;;;;;;;5102878;27;20089;-82
2022/01/19 10:53:41;;;;;;;57.63;16.45;;;;;;;;;;5099000;27;20393;-82
2022/01/19 10:56:23;;;;;;;34.00;17.58;;;6.60;99.90;;;;;;5100970;27;20487;-83
2022/01/19 10:59:00;;;;;;;35.05;17.15;;;;;;;;;;5080791;27;20047;-82
2022/01/19 11:01:47;;;;;;;30.65;12.73;;;;;;;;;;5098834;27;20396;-83
2022/01/19 11:04:17;;;;;;;32.40;14.20;;;;;;;;;;5097131;27;20054;-82
2022/01/19 11:06:43;;;;;;;23.08;11.40;;;;;;;;;;5102114;27;20043;-83
2022/01/19 11:09:14;;;;;;;16.42;7.72;;;;;;;;;;5100194;28;20051;-82
2022/01/19 11:11:43;;;;;;;13.10;5.50;;;7.60;88.50;;;;;;5088428;27;20113;-82
2022/01/19 11:14:09;;;;;;;13.75;5.78;;;;;;;;;;5101381;27;20047;-82
2022/01/19 11:16:35;;;;;;;14.45;5.82;;;;;;;;;;5084008;27;20047;-81
2022/01/19 11:19:01;;;;;;;17.17;5.40;;;;;;;;;;5103500;27;20070;-83
2022/01/19 11:21:30;;;;;;;15.90;6.45;;;;;;;;;;5096370;27;20070;-82
2022/01/19 11:23:57;;;;;;;11.90;5.95;;;;;;;;;;5096502;27;20068;-82
2022/01/19 11:26:27;;;;;;;15.18;5.00;;;;;;;;;;5095739;28;20407;-82
2022/01/19 11:28:53;;;;;;;12.60;4.25;;;;;;;;;;5079810;27;20581;-82
2022/01/19 11:31:22;;;;;;;10.73;4.05;;;;;;;;;;5102847;27;20047;-82
2022/01/19 11:33:53;;;;;;;19.92;7.03;;;;;;;;;;5100610;27;20042;-82
2022/01/19 11:36:23;;;;;;;14.27;6.32;;;;;;;;;;5078196;27;20039;-82
2022/01/19 11:39:08;;;;;;;12.18;5.47;;;;;;;;;;5100057;27;20050;-82
2022/01/19 11:41:36;;;;;;;9.55;4.47;;;;;;;;;;5080741;27;20039;-82
2022/01/19 11:44:02;;;;;;;13.90;5.40;;;;;;;;;;5098711;27;20077;-82
2022/01/19 11:46:31;;;;;;;19.10;6.57;;;;;;;;;;5093695;27;20062;-82
2022/01/19 11:48:58;;;;;;;13.93;5.85;;;;;;;;;;5098460;27;20039;-82
2022/01/19 11:51:25;;;;;;;13.27;4.53;;;;;;;;;;5075480;27;20042;-82
2022/01/19 11:54:02;;;;;;;14.82;5.38;;;;;;;;;;5098503;27;20043;-82
2022/01/19 11:56:28;;;;;;;9.55;4.55;;;;;;;;;;5095196;27;20130;-82
2022/01/19 11:59:03;;;;;;;15.40;4.50;;;;;;;;;;5099543;27;20173;-82
2022/01/19 12:01:29;;;;;;;16.00;6.45;;;;;;;;;;5102028;27;20039;-83
2022/01/19 12:04:12;;;;;;;19.80;6.35;;;;;;;;;;5102117;27;20356;-82
2022/01/19 12:06:38;;;;;;;17.92;6.22;;;;;;;;;;5098799;27;20135;-82
2022/01/19 12:09:07;;;;;;;16.25;5.88;;;;;;;;;;5096449;27;20511;-82
2022/01/19 12:11:36;;;;;;;19.15;6.00;;;;;;;;;;5102597;27;20047;-82
2022/01/19 12:14:24;;;;;;;13.18;3.97;;;;;;;;;;5080551;27;20050;-81
2022/01/19 12:16:57;;;;;;;14.02;5.80;;;;;;;;;;5100449;27;20050;-82
2022/01/19 12:19:27;;;;;;;17.70;5.78;;;;;;;;;;5079534;27;20035;-81
2022/01/19 12:21:55;;;;;;;10.32;5.00;;;;;;;;;;5097384;27;20039;-82
2022/01/19 12:24:26;;;;;;;14.88;5.22;;;;;;;;;;5098798;27;20103;-81
2022/01/19 12:26:56;;;;;;;21.27;5.45;;;;;;;;;;5077461;27;20035;-82
2022/01/19 12:29:37;;;;;;;16.95;6.68;;;;;;;;;;5101505;27;20618;-82
2022/01/19 12:32:04;;;;;;;11.68;4.00;;;;;;;;;;5093196;27;20039;-81
2022/01/19 12:34:51;;;;;;;15.20;5.07;;;;;;;;;;5090432;27;20476;-81
2022/01/19 12:37:32;;;;;;;15.95;4.63;;;;;;;;;;5096877;27;20039;-81
2022/01/19 12:40:00;;;;;;;11.90;4.40;;;;;;;;;;5093317;27;20055;-81
2022/01/19 12:42:32;;;;;;;12.70;3.90;;;;;;;;;;5094514;28;20126;-81
2022/01/19 12:45:00;;;;;;;15.02;5.30;;;;;;;;;;5094863;27;20559;-81
2022/01/19 12:47:28;;;;;;;14.38;5.22;;;;;;;;;;5098676;27;20443;-82
2022/01/19 12:49:58;;;;;;;13.88;4.97;;;;;;;;;;5099589;27;20092;-82
2022/01/19 12:52:25;;;;;;;21.85;5.00;;;;;;;;;;5076840;27;20044;-81
2022/01/19 12:54:52;;;;;;;12.77;4.55;;;6.70;93.00;;;;;;5098891;27;20054;-81
2022/01/19 12:57:18;;;;;;;12.15;5.28;;;;;;;;;;5101790;27;20070;-81
2022/01/19 12:59:46;;;;;;;14.18;4.63;;;;;;;;;;5097822;27;20038;-81
2022/01/19 13:02:13;;;;;;;21.77;4.45;;;;;;;;;;5100642;27;20393;-81
2022/01/19 13:04:42;;;;;;;18.52;5.07;;;;;;;;;;5083131;27;20039;-81
2022/01/19 13:07:28;;;;;;;12.98;5.00;;;6.60;99.90;;;;;;5096818;28;20124;-81
2022/01/19 13:10:13;;;;;;;8.50;4.47;;;;;;;;;;5096165;27;20449;-81
2022/01/19 13:12:54;;;;;;;13.52;5.72;;;;;;;;;;5085600;27;20626;-81
2022/01/19 13:15:21;;;;;;;20.02;5.10;;;;;;;;;;5094555;27;20522;-82
2022/01/19 13:17:49;;;;;;;15.65;5.05;;;;;;;;;;5080013;27;20036;-83
2022/01/19 13:20:23;;;;;;;17.48;5.22;;;;;;;;;;5098316;27;20043;-83
2022/01/19 13:22:49;;;;;;;14.00;5.70;;;;;;;;;;5070982;27;20395;-83
2022/01/19 13:25:27;;;;;;;18.73;5.28;;;6.00;99.90;;;;;;5098136;27;20035;-84
2022/01/19 13:27:55;;;;;;;12.50;4.68;;;;;;;;;;5091553;28;20071;-83
2022/01/19 13:30:23;;;;;;;14.77;6.70;;;;;;;;;;5079964;28;20096;-84
2022/01/19 13:32:49;;;;;;;14.48;4.57;;;;;;;;;;5080203;28;20035;-83
2022/01/19 13:35:16;;;;;;;17.13;4.45;;;;;;;;;;5094808;27;20043;-83
2022/01/19 13:37:47;;;;;;;13.85;5.93;;;;;;;;;;5096234;28;20047;-83
2022/01/19 13:40:16;;;;;;;22.73;5.90;;;;;;;;;;5074878;28;20059;-83
2022/01/19 13:42:47;;;;;;;17.00;5.95;;;;;;;;;;5095680;28;20534;-84
2022/01/19 13:45:29;;;;;;;16.58;4.38;;;;;;;;;;5092586;28;20052;-84
2022/01/19 13:50:41;;;;;;;14.93;4.90;;;;;;;;;;5092348;28;20052;-84
2022/01/19 13:53:07;;;;;;;9.57;4.50;;;;;;;;;;5092413;28;20404;-84
2022/01/19 13:55:34;;;;;;;16.52;5.85;;;;;;;;;;5094104;28;20126;-84
2022/01/19 13:58:11;;;;;;;12.88;5.47;;;;;;;;;;5071979;28;20106;-84
2022/01/19 14:00:57;;;;;;;11.65;4.55;;;;;;;;;;5091910;28;20036;-84
2022/01/19 14:03:24;;;;;;;20.48;7.90;;;;;;;;;;5094385;28;20425;-84
2022/01/19 14:05:55;;;;;;;18.17;7.53;;;;;;;;;;5093761;28;20123;-84
2022/01/19 14:08:28;;;;;;;20.45;9.50;;;;;;;;;;5075152;28;20048;-83
2022/01/19 14:10:54;;;;;;;24.65;8.57;;;;;;;;;;5078415;28;20043;-84
2022/01/19 14:13:28;;;;;;;20.92;9.00;;;;;;;;;;5093324;28;20066;-84
2022/01/19 14:15:55;;;;;;;26.40;9.68;;;;;;;;;;5068700;28;20062;-82
2022/01/19 14:18:21;;;;;;;9.65;4.80;;;;;;;;;;5084419;28;20572;-83
2022/01/19 14:21:07;;;;;;;26.02;7.53;;;;;;;;;;5089437;28;20031;-83
2022/01/19 14:23:33;;;;;;;32.58;10.82;;;;;;;;;;5091159;28;20098;-84
2022/01/19 14:26:10;;;;;;;32.47;11.48;;;;;;;;;;5099105;28;20166;-84
2022/01/19 14:28:37;;;;;;;28.23;11.65;;;;;;;;;;5095092;28;20477;-84
2022/01/19 14:31:05;;;;;;;27.83;11.23;;;;;;;;;;5082535;28;20408;-84
2022/01/19 14:33:31;;;;;;;35.17;13.70;;;;;;;;;;5090502;28;20039;-84
2022/01/19 14:36:01;;;;;;;37.03;11.95;;;;;;;;;;5095920;28;20076;-84
2022/01/19 14:38:38;;;;;;;26.73;9.90;;;;;;;;;;5096391;28;20110;-83
2022/01/19 14:41:06;;;;;;;28.10;10.32;;;;;;;;;;5085751;28;20131;-84
2022/01/19 14:44:20;;;;;;;35.70;11.88;;;;;;;;;;5081067;28;20048;-85
2022/01/19 14:47:05;;;;;;;26.98;9.13;;;6.70;99.90;;;;;;5077332;28;20066;-84
2022/01/19 14:49:34;;;;;;;28.23;11.10;;;;;;;;;;5079272;28;20369;-84
2022/01/19 14:52:00;;;;;;;32.70;8.73;;;;;;;;;;5100374;28;20545;-84
2022/01/19 14:54:27;;;;;;;28.50;8.52;;;;;;;;;;5096518;28;20446;-84
2022/01/19 14:56:53;;;;;;;21.17;7.90;;;;;;;;;;5093893;28;20042;-83
2022/01/19 14:59:20;;;;;;;26.42;8.93;;;;;;;;;;5084413;28;20040;-83
2022/01/19 15:01:50;;;;;;;34.95;9.35;;;;;;;;;;5102403;27;20043;-83
2022/01/19 15:04:16;;;;;;;31.92;9.05;;;;;;;;;;5082891;27;20044;-83
2022/01/19 15:06:44;;;;;;;37.40;9.40;;;;;;;;;;5083192;28;20095;-82
2022/01/19 15:09:11;;;;;;;41.70;9.63;;;;;;;;;;5091946;28;20104;-84
2022/01/19 15:11:38;;;;;;;33.13;7.28;;;;;;;;;;5095874;27;20042;-85
2022/01/19 15:14:05;;;;;;;32.60;6.65;;;;;;;;;;5093589;28;20071;-84
2022/01/19 15:16:31;;;;;;;25.38;8.43;;;;;;;;;;5095301;28;20075;-84
2022/01/19 15:18:57;;;;;;;24.10;5.78;;;;;;;;;;5074863;28;20138;-84
2022/01/19 15:21:23;;;;;;;19.30;5.28;;;;;;;;;;5095538;28;20040;-84
2022/01/19 15:23:50;;;;;;;19.05;4.70;;;;;;;;;;5076723;28;20141;-83
2022/01/19 15:26:20;;;;;;;15.52;4.10;;;;;;;;;;5077964;28;20089;-83
2022/01/19 15:28:47;;;;;;;22.17;4.50;;;;;;;;;;5076719;28;20408;-83
2022/01/19 15:31:13;;;;;;;19.58;2.83;;;;;;;;;;5074354;28;20130;-85
2022/01/19 15:33:40;;;;;;;11.38;2.90;;;;;;;;;;5094206;28;20039;-85
2022/01/19 15:36:07;;;;;;;16.85;2.47;;;;;;;;;;5083294;28;20039;-85
2022/01/19 15:38:38;;;;;;;13.93;3.20;;;;;;;;;;5091140;28;20040;-85
2022/01/19 15:41:04;;;;;;;15.40;2.95;;;;;;;;;;5082806;28;20047;-85
2022/01/19 15:43:31;;;;;;;10.98;2.55;;;;;;;;;;5071675;28;20039;-85
2022/01/19 15:45:58;;;;;;;17.35;4.10;;;;;;;;;;5083399;28;20042;-85
2022/01/19 15:48:25;;;;;;;16.80;2.83;;;;;;;;;;5093935;28;20039;-85
2022/01/19 15:50:52;;;;;;;19.67;2.45;;;7.00;1.00;;;;;;5086773;28;20047;-85